createdAt,value
2019-05-11T00:02:10.587Z,99490.55
2019-05-11T00:04:39.684Z,99482.80
2019-05-11T00:07:08.998Z,99472.37
2019-05-11T00:09:38.302Z,99470.22
2019-05-11T00:12:07.591Z,99472.45
2019-05-11T00:14:36.887Z,99464.95
2019-05-11T00:17:06.140Z,99457.53
2019-05-11T00:19:35.337Z,99450.06
2019-05-11T00:22:04.423Z,99455.34
2019-05-11T00:24:33.579Z,99454.23
2019-05-11T00:27:02.954Z,99451.45
2019-05-11T00:29:32.174Z,99444.08
2019-05-11T00:32:01.214Z,99432.98
2019-05-11T00:34:30.475Z,99420.36
2019-05-11T00:36:59.642Z,99419.47
2019-05-11T00:39:28.827Z,99420.00
2019-05-11T00:41:58.162Z,99419.63
2019-05-11T00:44:29.130Z,99414.56
2019-05-11T00:46:58.507Z,99405.48
2019-05-11T00:49:27.692Z,99410.91
2019-05-11T00:51:56.979Z,99415.42
2019-05-11T00:54:26.253Z,99398.94
2019-05-11T00:56:55.520Z,99403.56
2019-05-11T00:59:24.602Z,99394.84
2019-05-11T01:01:53.763Z,99391.52
2019-05-11T01:04:22.995Z,99378.01
2019-05-11T01:06:52.330Z,99370.16
2019-05-11T01:09:21.430Z,99355.30
2019-05-11T01:11:50.669Z,99358.14
2019-05-11T01:14:19.883Z,99345.39
2019-05-11T01:16:49.107Z,99333.84
2019-05-11T01:19:18.356Z,99344.52
2019-05-11T01:21:47.590Z,99331.76
2019-05-11T01:24:16.895Z,99338.72
2019-05-11T01:26:46.086Z,99317.70
2019-05-11T01:29:15.126Z,99321.83
2019-05-11T01:31:44.491Z,99320.25
2019-05-11T01:34:13.620Z,99320.00
2019-05-11T01:36:42.956Z,99321.69
2019-05-11T01:39:12.153Z,99325.63
2019-05-11T01:41:41.253Z,99316.91
2019-05-11T01:44:10.688Z,99320.53
2019-05-11T01:46:39.800Z,99309.73
2019-05-11T01:49:09.078Z,99308.42
2019-05-11T01:51:38.280Z,99307.91
2019-05-11T01:54:07.516Z,99308.05
2019-05-11T01:56:36.799Z,99311.95
2019-05-11T01:59:05.857Z,99312.59
2019-05-11T02:01:35.147Z,99303.64
2019-05-11T02:04:04.363Z,99300.64
2019-05-11T02:06:33.498Z,99296.60
2019-05-11T02:09:03.110Z,99294.94
2019-05-11T02:11:32.134Z,99298.02
2019-05-11T02:14:01.266Z,99292.08
2019-05-11T02:16:30.341Z,99293.23
2019-05-11T02:18:59.628Z,99288.13
2019-05-11T02:21:28.877Z,99280.78
2019-05-11T02:23:58.056Z,99275.20
2019-05-11T02:26:27.487Z,99277.06
2019-05-11T02:28:56.561Z,99265.34
2019-05-11T02:31:25.688Z,99267.80
2019-05-11T02:33:55.171Z,99266.45
2019-05-11T02:36:24.194Z,99274.21
2019-05-11T02:38:53.704Z,99269.50
2019-05-11T02:41:35.560Z,99269.86
2019-05-11T02:43:53.803Z,99260.67
2019-05-11T02:46:23.020Z,99273.34
2019-05-11T02:48:52.242Z,99265.91
2019-05-11T02:51:21.760Z,99265.34
2019-05-11T02:53:50.926Z,99274.17
2019-05-11T02:56:19.969Z,99272.00
2019-05-11T02:58:49.238Z,99269.90
2019-05-11T03:01:18.464Z,99272.07
2019-05-11T03:03:47.625Z,99281.72
2019-05-11T03:06:16.831Z,99283.22
2019-05-11T03:08:46.002Z,99278.16
2019-05-11T03:11:15.356Z,99278.44
2019-05-11T03:13:44.449Z,99275.98
2019-05-11T03:16:13.768Z,99270.11
2019-05-11T03:18:43.017Z,99280.14
2019-05-11T03:21:12.267Z,99289.43
2019-05-11T03:23:41.300Z,99287.10
2019-05-11T03:26:10.584Z,99275.47
2019-05-11T03:28:39.672Z,99275.23
2019-05-11T03:31:08.792Z,99262.42
2019-05-11T03:33:37.895Z,99280.61
2019-05-11T03:36:06.971Z,99272.47
2019-05-11T03:38:36.007Z,99262.70
2019-05-11T03:41:05.209Z,99266.58
2019-05-11T03:43:34.255Z,99261.26
2019-05-11T03:46:03.376Z,99267.66
2019-05-11T03:48:32.600Z,99260.16
2019-05-11T03:51:01.890Z,99262.56
2019-05-11T03:53:31.222Z,99265.77
2019-05-11T03:56:00.322Z,99269.63
2019-05-11T03:58:29.495Z,99267.77
2019-05-11T04:00:58.759Z,99266.36
2019-05-11T04:03:27.822Z,99268.45
2019-05-11T04:05:57.251Z,99265.30
2019-05-11T04:08:26.576Z,99263.39
2019-05-11T04:10:55.667Z,99266.08
2019-05-11T04:13:24.882Z,99255.09
2019-05-11T04:15:54.023Z,99251.05
2019-05-11T04:18:23.359Z,99256.23
2019-05-11T04:20:52.467Z,99260.47
2019-05-11T04:23:21.792Z,99261.58
2019-05-11T04:25:50.931Z,99255.32
2019-05-11T04:28:20.135Z,99260.70
2019-05-11T04:30:49.497Z,99263.39
2019-05-11T04:33:18.587Z,99268.77
2019-05-11T04:35:47.890Z,99264.12
2019-05-11T04:38:17.042Z,99259.16
2019-05-11T04:40:46.381Z,99256.45
2019-05-11T04:43:15.713Z,99256.64
2019-05-11T04:45:45.808Z,99262.47
2019-05-11T04:48:15.070Z,99269.07
2019-05-11T04:50:44.137Z,99256.61
2019-05-11T04:53:13.471Z,99265.34
2019-05-11T04:55:42.652Z,99274.80
2019-05-11T04:58:11.898Z,99275.72
2019-05-11T05:00:40.946Z,99271.73
2019-05-11T05:03:10.318Z,99272.67
2019-05-11T05:05:39.662Z,99269.99
2019-05-11T05:08:10.043Z,99271.68
2019-05-11T05:10:39.182Z,99264.55
2019-05-11T05:13:10.917Z,99255.34
2019-05-11T05:15:39.285Z,99244.65
2019-05-11T05:18:08.504Z,99257.19
2019-05-11T05:20:37.736Z,99263.23
2019-05-11T05:23:06.970Z,99265.95
2019-05-11T05:25:36.449Z,99271.61
2019-05-11T05:28:05.504Z,99275.31
2019-05-11T05:30:34.847Z,99281.77
2019-05-11T05:33:04.004Z,99285.08
2019-05-11T05:35:33.085Z,99284.87
2019-05-11T05:38:02.691Z,99280.44
2019-05-11T05:40:31.708Z,99284.92
2019-05-11T05:43:00.742Z,99281.00
2019-05-11T05:45:30.051Z,99284.80
2019-05-11T05:47:59.172Z,99277.86
2019-05-11T05:50:28.390Z,99282.80
2019-05-11T05:52:57.459Z,99283.59
2019-05-11T05:55:26.793Z,99275.55
2019-05-11T05:57:56.081Z,99286.65
2019-05-11T06:00:25.331Z,99289.34
2019-05-11T06:02:54.544Z,99289.95
2019-05-11T06:05:23.755Z,99285.25
2019-05-11T06:07:52.969Z,99283.40
2019-05-11T06:10:22.223Z,99286.16
2019-05-11T06:12:51.579Z,99276.02
2019-05-11T06:15:20.757Z,99288.41
2019-05-11T06:17:49.990Z,99286.83
2019-05-11T06:20:19.085Z,99288.38
2019-05-11T06:22:48.359Z,99283.48
2019-05-11T06:25:17.878Z,99289.46
2019-05-11T06:27:47.140Z,99292.45
2019-05-11T06:30:16.388Z,99285.03
2019-05-11T06:32:45.569Z,99287.98
2019-05-11T06:35:15.330Z,99291.05
2019-05-11T06:37:44.803Z,99296.22
2019-05-11T06:40:13.871Z,99301.94
2019-05-11T06:42:43.092Z,99301.95
2019-05-11T06:45:12.417Z,99305.69
2019-05-11T06:47:41.749Z,99307.98
2019-05-11T06:50:11.127Z,99315.89
2019-05-11T06:52:40.210Z,99320.01
2019-05-11T06:55:09.361Z,99316.56
2019-05-11T06:57:38.713Z,99314.52
2019-05-11T07:00:07.996Z,99313.23
2019-05-11T07:02:37.149Z,99316.30
2019-05-11T07:05:06.618Z,99315.09
2019-05-11T07:07:47.257Z,99323.73
2019-05-11T07:10:06.540Z,99317.72
2019-05-11T07:12:35.669Z,99324.67
2019-05-11T07:15:05.436Z,99320.41
2019-05-11T07:17:34.593Z,99318.28
2019-05-11T07:20:03.841Z,99320.20
2019-05-11T07:22:33.037Z,99322.62
2019-05-11T07:25:02.540Z,99323.65
2019-05-11T07:27:31.657Z,99322.59
2019-05-11T07:30:00.801Z,99327.21
2019-05-11T07:32:29.905Z,99327.45
2019-05-11T07:34:58.969Z,99330.72
2019-05-11T07:37:28.180Z,99329.39
2019-05-11T07:39:58.240Z,99328.86
2019-05-11T07:42:28.549Z,99331.36
2019-05-11T07:44:58.310Z,99337.26
2019-05-11T07:47:27.862Z,99319.61
2019-05-11T07:49:57.935Z,99334.25
2019-05-11T07:52:28.696Z,99333.19
2019-05-11T07:54:58.356Z,99338.20
2019-05-11T07:57:28.437Z,99331.98
2019-05-11T07:59:57.931Z,99333.09
2019-05-11T08:02:28.161Z,99340.09
2019-05-11T08:04:58.782Z,99347.09
2019-05-11T08:07:28.536Z,99351.70
2019-05-11T08:09:58.736Z,99343.09
2019-05-11T08:12:28.634Z,99348.53
2019-05-11T08:15:08.099Z,99343.05
2019-05-11T08:17:28.759Z,99359.39
2019-05-11T08:19:58.112Z,99346.65
2019-05-11T08:22:28.426Z,99350.75
2019-05-11T08:24:58.590Z,99362.65
2019-05-11T08:27:28.647Z,99362.40
2019-05-11T08:29:58.121Z,99371.62
2019-05-11T08:32:28.697Z,99359.68
2019-05-11T08:34:58.135Z,99365.93
2019-05-11T08:37:28.342Z,99372.98
2019-05-11T08:39:58.700Z,99362.89
2019-05-11T08:42:29.976Z,99380.81
2019-05-11T08:45:14.826Z,99384.58
2019-05-11T08:47:30.454Z,99390.53
2019-05-11T08:49:59.670Z,99391.60
2019-05-11T08:52:28.942Z,99386.41
2019-05-11T08:54:58.064Z,99395.41
2019-05-11T08:57:28.523Z,99401.73
2019-05-11T08:59:58.012Z,99406.66
2019-05-11T09:02:27.764Z,99419.69
2019-05-11T09:04:58.957Z,99409.62
2019-05-11T09:07:28.153Z,99400.13
2019-05-11T09:09:58.600Z,99410.41
2019-05-11T09:12:28.811Z,99397.95
2019-05-11T09:14:58.252Z,99400.91
2019-05-11T09:17:28.901Z,99399.31
2019-05-11T09:19:58.295Z,99407.42
2019-05-11T09:22:28.359Z,99408.44
2019-05-11T09:24:58.418Z,99423.56
2019-05-11T09:27:28.634Z,99421.84
2019-05-11T09:29:58.671Z,99430.49
2019-05-11T09:32:28.620Z,99435.91
2019-05-11T09:34:58.076Z,99437.57
2019-05-11T09:37:27.884Z,99444.98
2019-05-11T09:39:58.331Z,99446.70
2019-05-11T09:42:28.549Z,99457.84
2019-05-11T09:44:58.127Z,99455.66
2019-05-11T09:47:28.066Z,99455.92
2019-05-11T09:49:58.212Z,99456.19
2019-05-11T09:52:32.523Z,99442.87
2019-05-11T09:55:01.968Z,99456.75
2019-05-11T09:57:31.146Z,99450.25
2019-05-11T10:00:00.358Z,99453.03
2019-05-11T10:02:29.627Z,99446.80
2019-05-11T10:04:58.839Z,99445.75
2019-05-11T10:07:28.916Z,99442.22
2019-05-11T10:09:59.063Z,99436.23
2019-05-11T10:12:28.641Z,99442.78
2019-05-11T10:14:59.087Z,99443.84
2019-05-11T10:17:28.873Z,99440.86
2019-05-11T10:19:58.420Z,99443.50
2019-05-11T10:22:27.921Z,99438.23
2019-05-11T10:24:58.209Z,99440.93
2019-05-11T10:27:28.098Z,99439.91
2019-05-11T10:29:58.971Z,99447.28
2019-05-11T10:32:28.881Z,99435.34
2019-05-11T10:34:58.502Z,99448.11
2019-05-11T10:37:28.341Z,99434.28
2019-05-11T10:39:57.932Z,99453.58
2019-05-11T10:42:28.720Z,99453.06
2019-05-11T10:44:58.339Z,99451.14
2019-05-11T10:47:27.935Z,99454.14
2019-05-11T10:49:57.979Z,99463.67
2019-05-11T10:52:28.564Z,99456.08
2019-05-11T10:54:58.607Z,99456.09
2019-05-11T10:57:28.377Z,99446.84
2019-05-11T10:59:58.404Z,99450.91
2019-05-11T11:02:27.975Z,99449.84
2019-05-11T11:04:58.824Z,99454.16
2019-05-11T11:07:28.812Z,99459.27
2019-05-11T11:09:58.299Z,99459.22
2019-05-11T11:12:28.000Z,99451.02
2019-05-11T11:14:58.744Z,99454.84
2019-05-11T11:17:29.796Z,99452.31
2019-05-11T11:19:59.293Z,99448.47
2019-05-11T11:22:39.833Z,99450.13
2019-05-11T11:24:59.620Z,99448.30
2019-05-11T11:27:29.256Z,99453.20
2019-05-11T11:29:58.424Z,99447.52
2019-05-11T11:32:28.019Z,99449.77
2019-05-11T11:34:57.814Z,99451.95
2019-05-11T11:37:28.086Z,99450.88
2019-05-11T11:39:58.235Z,99447.08
2019-05-11T11:42:28.372Z,99454.69
2019-05-11T11:44:58.729Z,99459.83
2019-05-11T11:47:28.263Z,99451.93
2019-05-11T11:49:58.359Z,99454.89
2019-05-11T11:52:27.868Z,99454.39
2019-05-11T11:54:58.620Z,99451.10
2019-05-11T11:57:28.430Z,99456.79
2019-05-11T11:59:58.757Z,99455.95
2019-05-11T12:02:28.596Z,99450.19
2019-05-11T12:04:58.278Z,99455.83
2019-05-11T12:07:28.495Z,99454.19
2019-05-11T12:09:58.802Z,99451.66
2019-05-11T12:12:28.065Z,99446.68
2019-05-11T12:14:58.502Z,99455.78
2019-05-11T12:17:28.573Z,99467.61
2019-05-11T12:19:58.582Z,99479.40
2019-05-11T12:22:28.114Z,99510.38
2019-05-11T12:24:58.899Z,99518.00
2019-05-11T12:27:28.706Z,99512.63
2019-05-11T12:29:58.296Z,99519.66
2019-05-11T12:32:40.123Z,99511.28
2019-05-11T12:35:09.230Z,99525.45
2019-05-11T12:37:38.277Z,99523.16
2019-05-11T12:40:08.436Z,99519.55
2019-05-11T12:42:38.212Z,99517.89
2019-05-11T12:45:08.144Z,99519.50
2019-05-11T12:47:38.545Z,99505.28
2019-05-11T12:50:08.163Z,99512.20
2019-05-11T12:52:38.292Z,99497.31
2019-05-11T12:55:08.798Z,99498.37
2019-05-11T12:57:38.617Z,99497.87
2019-05-11T13:00:08.864Z,99492.75
2019-05-11T13:02:38.809Z,99493.00
2019-05-11T13:05:08.871Z,99492.45
2019-05-11T13:07:39.244Z,99500.31
2019-05-11T13:10:09.329Z,99491.37
2019-05-11T13:12:38.802Z,99480.51
2019-05-11T13:15:08.450Z,99479.97
2019-05-11T13:17:40.666Z,99477.50
2019-05-11T13:20:09.763Z,99483.45
2019-05-11T13:22:39.446Z,99485.86
2019-05-11T13:25:08.753Z,99492.06
2019-05-11T13:27:38.731Z,99507.22
2019-05-11T13:30:08.362Z,99501.17
2019-05-11T13:32:38.553Z,99520.59
2019-05-11T13:35:09.153Z,99529.88
2019-05-11T13:37:38.945Z,99535.19
2019-05-11T13:40:08.990Z,99541.12
2019-05-11T13:42:38.738Z,99548.31
2019-05-11T13:45:08.698Z,99556.90
2019-05-11T13:47:51.698Z,99570.67
2019-05-11T13:50:09.035Z,99570.33
2019-05-11T13:52:38.678Z,99586.66
2019-05-11T13:55:08.114Z,99600.05
2019-05-11T13:57:38.363Z,99595.41
2019-05-11T14:00:08.433Z,99608.00
2019-05-11T14:02:38.142Z,99613.23
2019-05-11T14:05:09.214Z,99623.31
2019-05-11T14:07:38.497Z,99641.23
2019-05-11T14:10:08.457Z,99651.14
2019-05-11T14:12:38.559Z,99657.83
2019-05-11T14:15:08.861Z,99648.76
2019-05-11T14:17:38.178Z,99667.32
2019-05-11T14:20:08.986Z,99670.55
2019-05-11T14:22:38.761Z,99674.17
2019-05-11T14:25:08.696Z,99670.84
2019-05-11T14:27:39.032Z,99688.37
2019-05-11T14:30:08.770Z,99692.31
2019-05-11T14:32:38.906Z,99702.16
2019-05-11T14:35:12.040Z,99701.19
2019-05-11T14:37:39.100Z,99709.11
2019-05-11T14:40:08.972Z,99702.47
2019-05-11T14:42:38.462Z,99701.73
2019-05-11T14:45:08.775Z,99699.31
2019-05-11T14:47:42.621Z,99698.13
2019-05-11T14:50:11.591Z,99696.59
2019-05-11T14:52:40.682Z,99702.67
2019-05-11T14:55:09.994Z,99705.58
2019-05-11T14:57:39.770Z,99707.03
2019-05-11T15:00:09.401Z,99716.11
2019-05-11T15:02:45.457Z,99727.48
2019-05-11T15:05:17.975Z,99735.23
2019-05-11T15:07:47.861Z,99745.28
2019-05-11T15:10:18.872Z,99767.62
2019-05-11T15:12:48.847Z,99770.30
2019-05-11T15:15:19.000Z,99770.13
2019-05-11T15:17:49.277Z,99778.95
2019-05-11T15:20:18.860Z,99778.44
2019-05-11T15:22:48.834Z,99793.02
2019-05-11T15:25:20.030Z,99802.97
2019-05-11T15:27:49.371Z,99813.64
2019-05-11T15:30:18.712Z,99815.90
2019-05-11T15:32:48.392Z,99831.56
2019-05-11T15:35:18.865Z,99840.34
2019-05-11T15:37:48.333Z,99843.16
2019-05-11T15:40:19.415Z,99848.52
2019-05-11T15:42:48.878Z,99857.33
2019-05-11T15:45:19.064Z,99872.28
2019-05-11T15:47:49.176Z,99886.27
2019-05-11T15:50:23.516Z,99891.34
2019-05-11T15:52:49.335Z,99899.58
2019-05-11T15:55:19.070Z,99910.92
2019-05-11T15:57:48.578Z,99908.77
2019-05-11T16:00:18.118Z,99914.05
2019-05-11T16:02:49.071Z,99915.84
2019-05-11T16:05:18.610Z,99913.23
2019-05-11T16:07:49.253Z,99916.47
2019-05-11T16:10:19.065Z,99927.23
2019-05-11T16:12:48.832Z,99928.59
2019-05-11T16:15:19.677Z,99938.60
2019-05-11T16:17:50.297Z,99946.53
2019-05-11T16:20:19.658Z,99955.95
2019-05-11T16:22:48.820Z,99959.44
2019-05-11T16:25:19.616Z,99976.88
2019-05-11T16:27:49.140Z,99974.69
2019-05-11T16:30:21.754Z,99982.16
2019-05-11T16:32:49.485Z,99997.68
2019-05-11T16:35:18.611Z,100000.16
2019-05-11T16:37:48.793Z,100008.19
2019-05-11T16:40:20.837Z,100014.54
2019-05-11T16:42:49.355Z,100015.55
2019-05-11T16:45:19.296Z,100022.48
2019-05-11T16:47:48.774Z,100026.59
2019-05-11T16:50:18.417Z,100031.92
2019-05-11T16:52:48.478Z,100035.03
2019-05-11T16:55:18.351Z,100037.22
2019-05-11T16:57:48.592Z,100044.31
2019-05-11T17:00:18.096Z,100050.50
2019-05-11T17:02:49.137Z,100058.72
2019-05-11T17:05:26.569Z,100063.61
2019-05-11T17:07:49.331Z,100063.97
2019-05-11T17:10:18.863Z,100071.73
2019-05-11T17:12:48.751Z,100075.20
2019-05-11T17:15:18.755Z,100085.66
2019-05-11T17:17:48.940Z,100102.23
2019-05-11T17:20:19.447Z,100108.02
2019-05-11T17:22:48.854Z,100120.95
2019-05-11T17:25:19.241Z,100127.98
2019-05-11T17:27:49.310Z,100138.83
2019-05-11T17:30:19.848Z,100148.72
2019-05-11T17:32:49.880Z,100163.30
2019-05-11T17:35:19.792Z,100171.45
2019-05-11T17:37:49.012Z,100176.76
2019-05-11T17:40:23.086Z,100182.89
2019-05-11T17:42:53.593Z,100198.31
2019-05-11T17:45:20.900Z,100215.20
2019-05-11T17:47:50.217Z,100222.94
2019-05-11T17:50:19.472Z,100239.81
2019-05-11T17:52:48.629Z,100247.22
2019-05-11T17:55:18.546Z,100258.42
2019-05-11T17:57:49.659Z,100267.02
2019-05-11T18:00:20.219Z,100282.82
2019-05-11T18:02:49.723Z,100284.06
2019-05-11T18:05:19.191Z,100309.89
2019-05-11T18:07:48.345Z,100313.12
2019-05-11T18:10:18.576Z,100321.19
2019-05-11T18:12:48.675Z,100336.47
2019-05-11T18:15:19.042Z,100340.41
2019-05-11T18:17:48.722Z,100348.78
2019-05-11T18:20:21.540Z,100346.98
2019-05-11T18:22:52.232Z,100354.55
2019-05-11T18:25:21.540Z,100362.45
2019-05-11T18:27:51.008Z,100363.74
2019-05-11T18:30:20.128Z,100365.61
2019-05-11T18:32:49.435Z,100368.89
2019-05-11T18:35:19.736Z,100373.45
2019-05-11T18:37:49.122Z,100378.06
2019-05-11T18:40:18.838Z,100387.98
2019-05-11T18:42:48.957Z,100397.25
2019-05-11T18:45:19.031Z,100404.27
2019-05-11T18:47:49.315Z,100411.72
2019-05-11T18:50:30.533Z,100418.41
2019-05-11T18:52:50.514Z,100422.12
2019-05-11T18:55:19.905Z,100420.44
2019-05-11T18:57:49.464Z,100425.27
2019-05-11T19:00:19.496Z,100436.22
2019-05-11T19:02:49.354Z,100442.62
2019-05-11T19:05:19.742Z,100446.51
2019-05-11T19:07:49.140Z,100455.36
2019-05-11T19:10:18.273Z,100461.81
2019-05-11T19:12:48.712Z,100464.91
2019-05-11T19:15:19.255Z,100470.27
2019-05-11T19:17:49.473Z,100469.66
2019-05-11T19:20:18.757Z,100477.22
2019-05-11T19:22:48.181Z,100481.70
2019-05-11T19:25:18.376Z,100486.91
2019-05-11T19:27:50.175Z,100495.44
2019-05-11T19:30:18.916Z,100505.78
2019-05-11T19:32:48.765Z,100509.50
2019-05-11T19:35:20.953Z,100515.93
2019-05-11T19:37:49.765Z,100515.88
2019-05-11T19:40:18.878Z,100529.44
2019-05-11T19:42:53.882Z,100535.02
2019-05-11T19:45:23.397Z,100539.22
2019-05-11T19:47:52.806Z,100545.34
2019-05-11T19:50:22.351Z,100548.89
2019-05-11T19:52:51.671Z,100549.98
2019-05-11T19:55:21.031Z,100552.92
2019-05-11T19:57:50.143Z,100550.84
2019-05-11T20:00:19.705Z,100561.78
2019-05-11T20:02:48.791Z,100560.89
2019-05-11T20:05:18.519Z,100557.75
2019-05-11T20:07:49.085Z,100565.11
2019-05-11T20:10:19.012Z,100575.40
2019-05-11T20:12:48.730Z,100585.63
2019-05-11T20:15:18.898Z,100581.52
2019-05-11T20:17:48.926Z,100590.59
2019-05-11T20:20:18.948Z,100590.47
2019-05-11T20:22:48.722Z,100590.03
2019-05-11T20:25:19.344Z,100595.00
2019-05-11T20:27:49.050Z,100594.89
2019-05-11T20:30:19.576Z,100607.09
2019-05-11T20:32:49.444Z,100605.48
2019-05-11T20:35:19.261Z,100609.46
2019-05-11T20:37:48.498Z,100616.87
2019-05-11T20:40:18.288Z,100622.12
2019-05-11T20:42:48.714Z,100629.91
2019-05-11T20:45:18.921Z,100620.98
2019-05-11T20:47:49.109Z,100624.67
2019-05-11T20:50:20.212Z,100626.85
2019-05-11T20:52:49.881Z,100630.77
2019-05-11T20:55:19.182Z,100640.55
2019-05-11T20:57:48.986Z,100645.08
2019-05-11T21:00:18.957Z,100647.76
2019-05-11T21:02:48.934Z,100659.14
2019-05-11T21:05:18.562Z,100655.81
2019-05-11T21:07:47.866Z,100658.69
2019-05-11T21:10:18.062Z,100662.67
2019-05-11T21:12:47.308Z,100672.65
2019-05-11T21:15:17.607Z,100672.72
2019-05-11T21:17:48.155Z,100677.63
2019-05-11T21:20:18.282Z,100683.94
2019-05-11T21:22:48.604Z,100700.81
2019-05-11T21:25:18.622Z,100697.81
2019-05-11T21:27:48.632Z,100713.70
2019-05-11T21:30:18.807Z,100716.95
2019-05-11T21:32:48.082Z,100720.14
2019-05-11T21:35:19.253Z,100728.50
2019-05-11T21:37:48.841Z,100724.30
2019-05-11T21:40:17.997Z,100730.44
2019-05-11T21:42:47.622Z,100732.20
2019-05-11T21:45:18.281Z,100731.12
2019-05-11T21:47:48.999Z,100745.22
2019-05-11T21:50:19.309Z,100750.77
2019-05-11T21:52:48.602Z,100756.97
2019-05-11T21:55:17.634Z,100756.10
2019-05-11T21:57:49.481Z,100760.75
2019-05-11T22:00:18.902Z,100755.73
2019-05-11T22:02:48.705Z,100764.73
2019-05-11T22:05:20.795Z,100759.37
2019-05-11T22:07:49.117Z,100771.75
2019-05-11T22:10:18.816Z,100768.58
2019-05-11T22:12:48.976Z,100770.54
2019-05-11T22:15:18.421Z,100773.94
2019-05-11T22:17:48.033Z,100786.13
2019-05-11T22:20:18.338Z,100784.14
2019-05-11T22:22:47.855Z,100788.94
2019-05-11T22:25:19.270Z,100787.54
2019-05-11T22:27:49.252Z,100794.30
2019-05-11T22:30:18.780Z,100800.42
2019-05-11T22:32:48.038Z,100799.61
2019-05-11T22:35:18.299Z,100803.28
2019-05-11T22:37:48.966Z,100800.48
2019-05-11T22:40:18.786Z,100795.30
2019-05-11T22:42:47.848Z,100798.17
2019-05-11T22:45:18.653Z,100798.67
2019-05-11T22:47:48.179Z,100800.36
2019-05-11T22:50:18.594Z,100807.06
2019-05-11T22:52:48.698Z,100808.77
2019-05-11T22:55:18.933Z,100803.78
2019-05-11T22:57:48.658Z,100805.30
2019-05-11T23:00:21.803Z,100807.39
2019-05-11T23:02:51.042Z,100814.77
2019-05-11T23:05:20.113Z,100822.38
2019-05-11T23:07:49.499Z,100827.73
2019-05-11T23:10:19.667Z,100832.94
2019-05-11T23:12:49.063Z,100832.94
2019-05-11T23:15:19.233Z,100831.03
2019-05-11T23:17:48.340Z,100838.73
2019-05-11T23:20:17.684Z,100838.23
2019-05-11T23:22:58.223Z,100845.34
2019-05-11T23:25:20.922Z,100844.55
2019-05-11T23:27:50.219Z,100841.41
2019-05-11T23:30:21.886Z,100847.19
2019-05-11T23:32:50.996Z,100848.18
2019-05-11T23:35:20.124Z,100849.44
2019-05-11T23:37:50.101Z,100847.25
2019-05-11T23:40:20.206Z,100850.24
2019-05-11T23:42:49.505Z,100854.80
2019-05-11T23:45:19.348Z,100858.52
2019-05-11T23:47:51.517Z,100869.75
2019-05-11T23:50:20.927Z,100869.09
2019-05-11T23:53:05.132Z,100865.44
2019-05-11T23:55:21.292Z,100872.67
2019-05-11T23:57:50.687Z,100871.73
